createdAt,value
2023-04-07T00:02:17.001Z,98.20
2023-04-07T00:04:45.153Z,97.90
2023-04-07T00:07:13.316Z,98.10
2023-04-07T00:09:41.752Z,98.10
2023-04-07T00:12:11.770Z,98.00
2023-04-07T00:14:40.149Z,98.00
2023-04-07T00:17:08.228Z,98.30
2023-04-07T00:19:36.775Z,98.40
2023-04-07T00:22:04.832Z,98.50
2023-04-07T00:24:34.623Z,98.30
2023-04-07T00:27:03.151Z,98.40
2023-04-07T00:29:33.001Z,98.70
2023-04-07T00:32:01.156Z,98.90
2023-04-07T00:34:29.275Z,99.20
2023-04-07T00:36:57.662Z,99.30
2023-04-07T00:39:27.600Z,99.20
2023-04-07T00:41:56.672Z,99.40
2023-04-07T00:44:24.840Z,99.60
2023-04-07T00:46:54.693Z,99.90
2023-04-07T00:49:22.917Z,99.90
2023-04-07T00:51:51.619Z,99.90
2023-04-07T00:54:19.998Z,99.90
2023-04-07T00:56:48.107Z,99.90
2023-04-07T00:59:16.782Z,99.90
2023-04-07T01:01:49.733Z,99.90
2023-04-07T01:04:28.726Z,99.90
2023-04-07T01:07:03.731Z,99.90
2023-04-07T01:09:38.955Z,99.90
2023-04-07T01:12:13.821Z,99.90
2023-04-07T01:14:47.295Z,99.90
2023-04-07T01:17:17.286Z,99.90
2023-04-07T01:19:52.964Z,99.90
2023-04-07T01:22:27.732Z,99.90
2023-04-07T01:25:29.010Z,99.90
2023-04-07T01:28:14.115Z,99.90
2023-04-07T01:30:45.955Z,99.90
2023-04-07T01:33:15.844Z,99.90
2023-04-07T01:35:44.909Z,99.90
2023-04-07T01:38:14.240Z,99.90
2023-04-07T01:40:42.858Z,99.90
2023-04-07T01:43:12.576Z,99.90
2023-04-07T01:45:42.534Z,99.90
2023-04-07T01:48:13.456Z,99.90
2023-04-07T01:50:42.161Z,99.90
2023-04-07T01:53:10.669Z,99.90
2023-04-07T01:55:39.476Z,99.90
2023-04-07T01:58:07.646Z,99.90
2023-04-07T02:00:35.799Z,99.90
2023-04-07T02:03:20.809Z,99.90
2023-04-07T02:05:50.814Z,99.90
2023-04-07T02:08:21.383Z,99.90
2023-04-07T02:10:51.997Z,99.90
2023-04-07T02:13:22.108Z,99.90
2023-04-07T02:15:51.539Z,99.90
2023-04-07T02:18:22.412Z,99.90
2023-04-07T02:20:53.641Z,99.90
2023-04-07T02:23:21.961Z,99.90
2023-04-07T02:25:50.488Z,99.90
2023-04-07T02:28:18.636Z,99.90
2023-04-07T02:30:46.728Z,99.90
2023-04-07T02:33:14.831Z,99.90
2023-04-07T02:35:44.529Z,99.90
2023-04-07T02:38:12.962Z,99.90
2023-04-07T02:40:41.219Z,99.90
2023-04-07T02:43:09.643Z,99.90
2023-04-07T02:45:37.793Z,99.90
2023-04-07T02:48:06.280Z,99.90
2023-04-07T02:50:34.404Z,99.90
2023-04-07T02:53:03.873Z,99.90
2023-04-07T02:55:32.259Z,99.90
2023-04-07T02:58:00.326Z,99.90
2023-04-07T03:00:28.475Z,99.90
2023-04-07T03:02:56.965Z,99.90
2023-04-07T03:05:25.442Z,99.90
2023-04-07T03:07:53.497Z,99.90
2023-04-07T03:10:23.001Z,99.90
2023-04-07T03:12:51.077Z,99.90
2023-04-07T03:15:19.368Z,99.90
2023-04-07T03:17:47.937Z,99.90
2023-04-07T03:20:17.232Z,99.90
2023-04-07T03:22:47.320Z,99.90
2023-04-07T03:25:15.860Z,99.90
2023-04-07T03:27:45.509Z,99.90
2023-04-07T03:30:14.438Z,99.90
2023-04-07T03:32:42.568Z,99.90
2023-04-07T03:35:11.402Z,99.90
2023-04-07T03:37:39.858Z,99.90
2023-04-07T03:40:08.926Z,99.90
2023-04-07T03:42:37.027Z,99.90
2023-04-07T03:45:07.583Z,99.90
2023-04-07T03:47:35.728Z,99.90
2023-04-07T03:50:03.880Z,99.90
2023-04-07T03:52:32.337Z,99.90
2023-04-07T03:55:00.539Z,99.90
2023-04-07T03:57:28.621Z,99.90
2023-04-07T03:59:57.055Z,99.90
2023-04-07T04:02:26.970Z,99.90
2023-04-07T04:04:55.504Z,99.90
2023-04-07T04:07:23.889Z,99.90
2023-04-07T04:09:51.946Z,99.90
2023-04-07T04:12:20.549Z,99.90
2023-04-07T04:14:48.928Z,99.90
2023-04-07T04:17:17.004Z,99.90
2023-04-07T04:19:46.739Z,99.90
2023-04-07T04:22:15.453Z,99.90
2023-04-07T04:24:43.782Z,99.90
2023-04-07T04:27:12.200Z,99.90
2023-04-07T04:29:40.939Z,99.90
2023-04-07T04:32:09.659Z,99.90
2023-04-07T04:34:38.023Z,99.90
2023-04-07T04:37:07.485Z,99.90
2023-04-07T04:39:35.743Z,99.90
2023-04-07T04:42:04.151Z,99.90
2023-04-07T04:44:32.496Z,99.90
2023-04-07T04:47:00.844Z,99.90
2023-04-07T04:49:28.945Z,99.90
2023-04-07T04:51:57.054Z,99.90
2023-04-07T04:54:26.592Z,99.90
2023-04-07T04:56:56.847Z,99.90
2023-04-07T04:59:26.910Z,99.90
2023-04-07T05:01:55.499Z,99.90
2023-04-07T05:04:23.862Z,99.90
2023-04-07T05:06:52.383Z,99.90
2023-04-07T05:09:20.500Z,99.90
2023-04-07T05:11:49.992Z,99.90
2023-04-07T05:14:18.126Z,99.90
2023-04-07T05:16:46.206Z,99.90
2023-04-07T05:19:14.588Z,99.90
2023-04-07T05:21:42.706Z,99.90
2023-04-07T05:24:11.131Z,99.90
2023-04-07T05:26:39.242Z,99.90
2023-04-07T05:29:08.743Z,99.90
2023-04-07T05:31:37.467Z,99.90
2023-04-07T05:34:05.834Z,99.90
2023-04-07T05:36:34.495Z,99.90
2023-04-07T05:39:02.900Z,99.90
2023-04-07T05:41:31.351Z,99.90
2023-04-07T05:43:59.461Z,99.90
2023-04-07T05:46:29.215Z,99.90
2023-04-07T05:48:59.126Z,99.90
2023-04-07T05:51:27.848Z,99.90
2023-04-07T05:53:55.960Z,99.90
2023-04-07T05:56:24.019Z,99.90
2023-04-07T05:58:52.547Z,99.90
2023-04-07T06:01:20.708Z,99.90
2023-04-07T06:03:50.684Z,99.50
2023-04-07T06:06:19.411Z,99.80
2023-04-07T06:08:47.529Z,99.80
2023-04-07T06:11:15.779Z,99.10
2023-04-07T06:13:43.896Z,99.20
2023-04-07T06:16:12.129Z,99.70
2023-04-07T06:18:40.417Z,98.80
2023-04-07T06:21:10.182Z,98.50
2023-04-07T06:23:38.318Z,98.50
2023-04-07T06:26:06.866Z,98.60
2023-04-07T06:28:35.012Z,97.80
2023-04-07T06:31:03.440Z,98.00
2023-04-07T06:33:31.881Z,98.40
2023-04-07T06:36:00.259Z,98.70
2023-04-07T06:38:29.728Z,97.10
2023-04-07T06:40:58.111Z,97.60
2023-04-07T06:43:26.642Z,99.20
2023-04-07T06:45:54.732Z,97.10
2023-04-07T06:48:24.296Z,97.90
2023-04-07T06:50:52.756Z,97.70
2023-04-07T06:53:20.971Z,97.30
2023-04-07T06:55:50.448Z,97.10
2023-04-07T06:58:18.719Z,97.10
2023-04-07T07:00:46.801Z,96.60
2023-04-07T07:05:44.031Z,94.80
2023-04-07T07:08:12.133Z,95.10
2023-04-07T07:10:40.284Z,95.00
2023-04-07T07:13:10.012Z,95.30
2023-04-07T07:15:38.137Z,95.90
2023-04-07T07:18:06.851Z,96.10
2023-04-07T07:20:35.017Z,95.80
2023-04-07T07:23:03.077Z,94.90
2023-04-07T07:25:31.475Z,95.00
2023-04-07T07:27:59.608Z,94.10
2023-04-07T07:30:29.412Z,93.70
2023-04-07T07:32:57.581Z,93.70
2023-04-07T07:35:26.265Z,95.30
2023-04-07T07:37:54.644Z,96.30
2023-04-07T07:40:22.764Z,95.50
2023-04-07T07:42:51.135Z,96.30
2023-04-07T07:45:19.710Z,94.90
2023-04-07T07:47:49.383Z,95.10
2023-04-07T07:50:17.475Z,94.40
2023-04-07T07:52:46.319Z,94.00
2023-04-07T07:55:14.949Z,93.20
2023-04-07T07:57:43.138Z,94.60
2023-04-07T08:00:12.765Z,95.00
2023-04-07T08:02:41.322Z,94.10
2023-04-07T08:05:11.405Z,93.90
2023-04-07T08:07:39.665Z,95.20
2023-04-07T08:10:08.739Z,93.00
2023-04-07T08:12:36.836Z,93.70
2023-04-07T08:15:05.386Z,93.40
2023-04-07T08:17:33.798Z,93.00
2023-04-07T08:20:02.392Z,92.20
2023-04-07T08:22:31.908Z,93.20
2023-04-07T08:25:00.352Z,93.20
2023-04-07T08:27:28.455Z,92.60
2023-04-07T08:30:01.699Z,92.30
2023-04-07T08:32:36.853Z,91.50
2023-04-07T08:35:05.736Z,92.80
2023-04-07T08:37:36.747Z,90.90
2023-04-07T08:40:05.619Z,90.60
2023-04-07T08:42:35.288Z,90.70
2023-04-07T08:45:06.644Z,90.10
2023-04-07T08:47:36.767Z,89.60
2023-04-07T08:50:07.224Z,89.20
2023-04-07T08:52:42.790Z,88.80
2023-04-07T08:55:11.627Z,88.20
2023-04-07T08:57:40.964Z,86.00
2023-04-07T09:00:10.488Z,87.10
2023-04-07T09:02:40.500Z,84.60
2023-04-07T09:05:10.421Z,85.70
2023-04-07T09:07:43.485Z,84.90
2023-04-07T09:10:11.852Z,87.70
2023-04-07T09:12:40.465Z,86.20
2023-04-07T09:15:10.034Z,88.40
2023-04-07T09:17:38.451Z,85.70
2023-04-07T09:20:07.294Z,85.40
2023-04-07T09:22:42.466Z,84.50
2023-04-07T09:25:18.855Z,86.80
2023-04-07T09:28:00.322Z,84.70
2023-04-07T09:30:29.737Z,84.30
2023-04-07T09:32:59.233Z,84.00
2023-04-07T09:35:28.758Z,82.50
2023-04-07T09:38:05.805Z,88.60
2023-04-07T09:40:34.260Z,78.20
2023-04-07T09:43:04.534Z,83.00
2023-04-07T09:45:36.637Z,79.60
2023-04-07T09:48:09.996Z,80.50
2023-04-07T09:50:41.492Z,76.90
2023-04-07T09:53:11.551Z,79.20
2023-04-07T09:55:41.893Z,79.80
2023-04-07T09:58:10.788Z,80.50
2023-04-07T10:00:39.203Z,77.30
2023-04-07T10:03:08.765Z,77.90
2023-04-07T10:05:37.454Z,77.90
2023-04-07T10:08:07.626Z,77.30
2023-04-07T10:10:37.957Z,77.90
2023-04-07T10:13:06.699Z,77.90
2023-04-07T10:15:34.914Z,77.10
2023-04-07T10:18:08.807Z,79.00
2023-04-07T10:20:40.857Z,78.10
2023-04-07T10:23:17.616Z,82.10
2023-04-07T10:25:48.897Z,75.40
2023-04-07T10:28:19.100Z,77.00
2023-04-07T10:30:49.883Z,74.10
2023-04-07T10:33:18.568Z,74.70
2023-04-07T10:36:07.071Z,74.10
2023-04-07T10:38:35.502Z,72.00
2023-04-07T10:41:35.038Z,77.10
2023-04-07T10:44:04.282Z,71.80
2023-04-07T10:47:04.049Z,76.00
2023-04-07T10:49:32.425Z,76.70
2023-04-07T10:52:26.318Z,74.50
2023-04-07T10:55:32.138Z,74.00
2023-04-07T10:58:31.948Z,74.00
2023-04-07T11:01:20.771Z,73.50
2023-04-07T11:03:58.126Z,76.40
2023-04-07T11:06:27.197Z,73.00
2023-04-07T11:08:55.530Z,73.70
2023-04-07T11:11:43.256Z,76.20
2023-04-07T11:14:12.724Z,70.40
2023-04-07T11:16:46.087Z,71.50
2023-04-07T11:19:14.240Z,75.30
2023-04-07T11:21:42.682Z,73.80
2023-04-07T11:24:10.838Z,73.60
2023-04-07T11:26:40.641Z,72.50
2023-04-07T11:29:09.304Z,69.90
2023-04-07T11:31:40.312Z,74.40
2023-04-07T11:34:09.198Z,71.40
2023-04-07T11:36:41.167Z,75.20
2023-04-07T11:39:20.900Z,74.00
2023-04-07T11:41:50.257Z,73.70
2023-04-07T11:44:18.786Z,74.50
2023-04-07T11:46:59.704Z,75.50
2023-04-07T11:49:29.620Z,73.60
2023-04-07T11:52:02.620Z,72.90
2023-04-07T11:54:41.570Z,72.80
2023-04-07T11:57:12.466Z,75.70
2023-04-07T11:59:41.516Z,72.10
2023-04-07T12:02:11.265Z,71.70
2023-04-07T12:04:41.064Z,71.00
2023-04-07T12:07:10.936Z,72.90
2023-04-07T12:09:39.458Z,72.80
2023-04-07T12:12:10.962Z,74.20
2023-04-07T12:14:39.436Z,72.10
2023-04-07T12:17:09.433Z,72.10
2023-04-07T12:19:39.785Z,71.30
2023-04-07T12:22:08.270Z,72.80
2023-04-07T12:24:36.455Z,74.70
2023-04-07T12:27:04.946Z,72.00
2023-04-07T12:29:33.306Z,71.30
2023-04-07T12:32:02.334Z,69.90
2023-04-07T12:34:30.476Z,70.20
2023-04-07T12:37:00.239Z,71.90
2023-04-07T12:39:28.465Z,71.30
2023-04-07T12:41:58.586Z,72.10
2023-04-07T12:44:27.012Z,71.80
2023-04-07T12:46:55.127Z,71.70
2023-04-07T12:49:23.241Z,74.60
2023-04-07T12:51:52.738Z,73.40
2023-04-07T12:54:22.247Z,73.20
2023-04-07T12:56:50.919Z,71.30
2023-04-07T12:59:19.034Z,74.00
2023-04-07T13:01:49.559Z,71.40
2023-04-07T13:04:19.594Z,71.20
2023-04-07T13:06:47.738Z,73.20
2023-04-07T13:09:16.700Z,74.30
2023-04-07T13:11:46.145Z,75.00
2023-04-07T13:14:14.348Z,72.10
2023-04-07T13:16:43.108Z,73.40
2023-04-07T13:19:11.239Z,74.80
2023-04-07T13:24:10.443Z,71.60
2023-04-07T13:26:38.622Z,71.70
2023-04-07T13:29:08.066Z,70.80
2023-04-07T13:31:36.356Z,71.20
2023-04-07T13:34:04.501Z,73.00
2023-04-07T13:36:33.168Z,72.30
2023-04-07T13:39:02.283Z,72.30
2023-04-07T13:41:30.622Z,72.50
2023-04-07T13:43:59.456Z,73.40
2023-04-07T13:46:29.605Z,72.40
2023-04-07T13:48:57.901Z,71.40
2023-04-07T13:51:26.075Z,71.30
2023-04-07T13:53:54.255Z,71.20
2023-04-07T13:56:22.561Z,73.40
2023-04-07T13:58:50.682Z,72.60
2023-04-07T14:01:19.227Z,72.40
2023-04-07T14:03:49.511Z,70.00
2023-04-07T14:06:18.009Z,70.80
2023-04-07T14:08:46.116Z,72.10
2023-04-07T14:11:18.100Z,71.00
2023-04-07T14:13:46.843Z,73.40
2023-04-07T14:16:15.147Z,73.80
2023-04-07T14:18:43.659Z,73.10
2023-04-07T14:21:13.108Z,73.00
2023-04-07T14:23:42.589Z,74.20
2023-04-07T14:26:12.341Z,72.80
2023-04-07T14:28:41.129Z,74.60
2023-04-07T14:31:14.284Z,72.20
2023-04-07T14:33:42.872Z,73.50
2023-04-07T14:36:12.587Z,71.20
2023-04-07T14:38:41.024Z,72.10
2023-04-07T14:41:10.447Z,73.00
2023-04-07T14:43:39.404Z,73.20
2023-04-07T14:46:07.879Z,72.80
2023-04-07T14:48:36.014Z,75.60
2023-04-07T14:51:09.764Z,78.30
2023-04-07T14:53:39.800Z,79.40
2023-04-07T14:56:08.577Z,81.50
2023-04-07T14:58:39.210Z,79.10
2023-04-07T15:01:07.953Z,79.60
2023-04-07T15:03:36.803Z,78.80
2023-04-07T15:06:08.883Z,79.80
2023-04-07T15:08:36.968Z,80.50
2023-04-07T15:11:07.809Z,80.40
2023-04-07T15:13:36.454Z,77.30
2023-04-07T15:16:09.121Z,78.20
2023-04-07T15:18:37.434Z,78.80
2023-04-07T15:21:06.104Z,78.50
2023-04-07T15:23:34.978Z,77.40
2023-04-07T15:26:03.077Z,79.30
2023-04-07T15:28:32.676Z,78.60
2023-04-07T15:31:01.260Z,77.60
2023-04-07T15:33:29.560Z,78.80
2023-04-07T15:35:59.664Z,76.50
2023-04-07T15:38:28.929Z,78.50
2023-04-07T15:40:57.074Z,79.30
2023-04-07T15:43:25.892Z,78.50
2023-04-07T15:45:56.531Z,78.60
2023-04-07T15:48:25.136Z,78.30
2023-04-07T15:50:54.659Z,79.30
2023-04-07T15:53:22.899Z,81.00
2023-04-07T15:55:51.339Z,81.50
2023-04-07T15:58:19.414Z,81.20
2023-04-07T16:00:47.868Z,80.40
2023-04-07T16:03:17.461Z,81.10
2023-04-07T16:05:45.674Z,81.60
2023-04-07T16:08:14.036Z,80.80
2023-04-07T16:10:42.214Z,81.80
2023-04-07T16:13:11.159Z,80.50
2023-04-07T16:15:41.259Z,80.40
2023-04-07T16:18:12.195Z,80.20
2023-04-07T16:20:42.123Z,80.10
2023-04-07T16:23:11.141Z,80.20
2023-04-07T16:25:39.230Z,79.40
2023-04-07T16:28:07.797Z,79.50
2023-04-07T16:30:36.237Z,78.40
2023-04-07T16:33:04.726Z,79.70
2023-04-07T16:35:32.969Z,80.10
2023-04-07T16:38:05.072Z,80.90
2023-04-07T16:40:33.652Z,82.00
2023-04-07T16:43:02.270Z,85.90
2023-04-07T16:45:30.720Z,86.00
2023-04-07T16:47:58.891Z,86.60
2023-04-07T16:50:27.001Z,87.70
2023-04-07T16:52:57.343Z,87.60
2023-04-07T16:55:27.327Z,88.70
2023-04-07T16:57:55.619Z,87.40
2023-04-07T17:00:24.126Z,87.50
2023-04-07T17:02:52.323Z,87.40
2023-04-07T17:05:20.943Z,89.60
2023-04-07T17:07:49.141Z,91.50
2023-04-07T17:10:17.405Z,91.80
2023-04-07T17:12:52.393Z,91.00
2023-04-07T17:15:21.858Z,91.60
2023-04-07T17:17:50.396Z,91.90
2023-04-07T17:20:19.141Z,92.00
2023-04-07T17:22:49.132Z,93.00
2023-04-07T17:25:19.132Z,93.10
2023-04-07T17:27:49.091Z,93.20
2023-04-07T17:30:18.888Z,94.10
2023-04-07T17:32:47.457Z,94.50
2023-04-07T17:35:15.638Z,95.80
2023-04-07T17:37:44.044Z,96.80
2023-04-07T17:40:12.662Z,97.40
2023-04-07T17:42:41.291Z,99.90
2023-04-07T17:45:11.869Z,99.90
2023-04-07T17:47:40.798Z,99.90
2023-04-07T17:50:09.860Z,99.90
2023-04-07T17:52:38.404Z,99.90
2023-04-07T17:55:07.974Z,99.90
2023-04-07T17:57:37.205Z,99.90
2023-04-07T18:00:06.887Z,99.90
2023-04-07T18:02:37.434Z,99.90
2023-04-07T18:05:07.788Z,99.90
2023-04-07T18:07:35.879Z,99.90
2023-04-07T18:10:04.199Z,99.90
2023-04-07T18:12:32.864Z,99.90
2023-04-07T18:15:00.935Z,99.90
2023-04-07T18:17:29.463Z,99.90
2023-04-07T18:19:58.951Z,99.90
2023-04-07T18:22:28.097Z,99.90
2023-04-07T18:24:56.487Z,99.90
2023-04-07T18:27:26.807Z,99.90
2023-04-07T18:29:54.911Z,99.90
2023-04-07T18:32:23.935Z,99.90
2023-04-07T18:34:53.682Z,99.90
2023-04-07T18:37:23.325Z,99.90
2023-04-07T18:39:52.552Z,99.90
2023-04-07T18:42:20.840Z,99.90
2023-04-07T18:44:49.149Z,99.90
2023-04-07T18:47:17.533Z,99.90
2023-04-07T18:49:45.602Z,99.90
2023-04-07T18:52:13.740Z,99.90
2023-04-07T18:54:43.219Z,99.90
2023-04-07T18:57:11.485Z,99.90
2023-04-07T18:59:39.584Z,99.90
2023-04-07T19:02:07.832Z,99.90
2023-04-07T19:04:36.237Z,99.90
2023-04-07T19:07:04.343Z,99.90
2023-04-07T19:09:33.242Z,99.90
2023-04-07T19:12:02.693Z,99.90
2023-04-07T19:14:31.019Z,99.90
2023-04-07T19:16:59.491Z,99.90
2023-04-07T19:19:28.462Z,99.90
2023-04-07T19:21:56.572Z,99.90
2023-04-07T19:24:24.680Z,99.90
2023-04-07T19:26:53.077Z,99.90
2023-04-07T19:29:22.605Z,99.90
2023-04-07T19:31:51.536Z,99.90
2023-04-07T19:34:19.783Z,99.90
2023-04-07T19:36:47.861Z,99.90
2023-04-07T19:39:16.188Z,99.90
2023-04-07T19:41:44.288Z,99.90
2023-04-07T19:44:12.679Z,99.90
2023-04-07T19:46:42.160Z,99.90
2023-04-07T19:49:10.281Z,99.90
2023-04-07T19:51:38.686Z,99.90
2023-04-07T19:54:06.769Z,99.90
2023-04-07T19:56:34.911Z,99.90
2023-04-07T19:59:03.202Z,99.90
2023-04-07T20:01:31.639Z,99.90
2023-04-07T20:04:01.655Z,99.90
2023-04-07T20:06:31.931Z,99.90
2023-04-07T20:09:01.451Z,99.90
2023-04-07T20:11:29.526Z,99.90
2023-04-07T20:13:57.758Z,99.90
2023-04-07T20:16:26.363Z,99.90
2023-04-07T20:18:55.180Z,99.90
2023-04-07T20:21:25.211Z,99.90
2023-04-07T20:23:53.280Z,99.90
2023-04-07T20:26:22.553Z,99.90
2023-04-07T20:28:51.127Z,99.90
2023-04-07T20:31:19.513Z,99.90
2023-04-07T20:33:47.828Z,99.90
2023-04-07T20:36:16.011Z,99.90
2023-04-07T20:38:45.802Z,99.90
2023-04-07T20:41:14.655Z,99.90
2023-04-07T20:43:42.827Z,99.90
2023-04-07T20:46:11.327Z,99.90
2023-04-07T20:48:39.715Z,99.90
2023-04-07T20:51:08.099Z,99.90
2023-04-07T20:53:36.346Z,99.90
2023-04-07T20:56:06.132Z,99.90
2023-04-07T20:58:34.261Z,99.90
2023-04-07T21:01:03.001Z,99.90
2023-04-07T21:03:31.504Z,99.90
2023-04-07T21:05:59.988Z,99.90
2023-04-07T21:08:28.467Z,99.90
2023-04-07T21:10:56.538Z,99.90
2023-04-07T21:13:27.254Z,99.90
2023-04-07T21:15:57.443Z,99.90
2023-04-07T21:18:26.480Z,99.90
2023-04-07T21:20:57.109Z,99.90
2023-04-07T21:23:25.419Z,99.90
2023-04-07T21:25:53.525Z,99.90
2023-04-07T21:28:21.929Z,99.90
2023-04-07T21:30:55.609Z,99.90
2023-04-07T21:33:24.247Z,99.90
2023-04-07T21:35:52.801Z,99.90
2023-04-07T21:38:21.035Z,99.90
2023-04-07T21:40:49.192Z,99.90
2023-04-07T21:43:17.265Z,99.90
2023-04-07T21:45:46.261Z,99.90
2023-04-07T21:48:16.250Z,99.90
2023-04-07T21:50:44.326Z,99.90
2023-04-07T21:53:12.707Z,99.90
2023-04-07T21:55:40.824Z,99.90
2023-04-07T21:58:09.417Z,99.90
2023-04-07T22:00:38.687Z,99.90
2023-04-07T22:03:07.702Z,99.90
2023-04-07T22:05:37.644Z,99.90
2023-04-07T22:08:06.949Z,99.90
2023-04-07T22:10:35.068Z,99.90
2023-04-07T22:13:04.000Z,99.90
2023-04-07T22:15:32.095Z,99.90
2023-04-07T22:18:00.305Z,99.90
2023-04-07T22:20:28.758Z,99.90
2023-04-07T22:22:58.204Z,99.90
2023-04-07T22:25:26.547Z,99.90
2023-04-07T22:27:56.799Z,99.90
2023-04-07T22:30:25.638Z,99.90
2023-04-07T22:32:53.844Z,99.90
2023-04-07T22:35:21.973Z,99.90
2023-04-07T22:37:50.377Z,99.90
2023-04-07T22:40:19.886Z,99.90
2023-04-07T22:42:47.976Z,99.90
2023-04-07T22:45:16.548Z,99.90
2023-04-07T22:47:45.218Z,99.90
2023-04-07T22:50:13.339Z,99.90
2023-04-07T22:52:41.869Z,99.90
2023-04-07T22:55:11.027Z,99.90
2023-04-07T22:57:40.759Z,99.90
2023-04-07T23:00:10.076Z,99.90
2023-04-07T23:02:38.645Z,99.90
2023-04-07T23:05:07.859Z,99.90
2023-04-07T23:07:35.931Z,99.90
2023-04-07T23:10:04.590Z,99.90
2023-04-07T23:12:32.714Z,99.90
2023-04-07T23:15:02.161Z,99.90
2023-04-07T23:17:30.613Z,99.90
2023-04-07T23:19:58.768Z,99.90
2023-04-07T23:22:27.410Z,99.90
2023-04-07T23:24:56.878Z,99.90
2023-04-07T23:27:25.000Z,99.90
2023-04-07T23:29:53.957Z,99.90
2023-04-07T23:32:23.419Z,99.90
2023-04-07T23:34:51.813Z,99.90
2023-04-07T23:37:19.892Z,99.90
2023-04-07T23:39:48.501Z,99.90
2023-04-07T23:42:16.780Z,99.90
2023-04-07T23:44:45.167Z,99.90
2023-04-07T23:47:13.222Z,99.90
2023-04-07T23:49:43.566Z,99.90
2023-04-07T23:52:12.393Z,99.90
2023-04-07T23:54:40.462Z,99.90
2023-04-07T23:57:08.774Z,99.90
2023-04-07T23:59:37.226Z,99.90
